Rolesville, North Carolina
Current Conditions -  °F | °C
As of 11:15 AM on Saturday 25 Oct 2014 (Local Time) from KLHZ Reporting Station
Clear Clear  
Wind Chill: 59°   Ceiling: Unl
Heat Index: 59°   Visibility: 10mi
Dew Point: 45°   Wind: 3mph
Humidity: 59%   Direction: 40°NE
Pressure: 30.03"   Gusts: NA
Location:  35.92°N, 78.46°W
Report Text: KLHZ 251515Z AUTO 04003KT 10SM CLR 15/07 A3003 RMK AO2
Loading
Personal Weather Stations






























Interactive Weather Map
Tropical Storm Tracking
New forecast layout! Learn more

10-Day Weather Forecast

Advertisements
Track Severe Weather on mobile